createdAt,value
2022-12-15T00:02:27.130Z,9.50
2022-12-15T00:05:12.985Z,8.45
2022-12-15T00:07:58.386Z,8.95
2022-12-15T00:10:43.544Z,7.50
2022-12-15T00:13:30.680Z,6.60
2022-12-15T00:16:16.542Z,7.03
2022-12-15T00:19:03.745Z,6.57
2022-12-15T00:21:49.076Z,7.45
2022-12-15T00:24:34.321Z,6.35
2022-12-15T00:27:19.724Z,4.90
2022-12-15T00:30:05.271Z,6.65
2022-12-15T00:32:50.712Z,3.83
2022-12-15T00:35:37.778Z,11.88
2022-12-15T00:38:27.337Z,13.52
2022-12-15T00:40:59.159Z,9.48
2022-12-15T00:43:27.685Z,7.15
2022-12-15T00:46:16.242Z,9.00
2022-12-15T00:48:44.624Z,5.30
2022-12-15T00:51:17.971Z,10.07
2022-12-15T00:54:04.274Z,7.32
2022-12-15T00:56:49.904Z,6.35
2022-12-15T00:59:35.912Z,7.57
2022-12-15T01:02:22.395Z,7.55
2022-12-15T01:05:07.796Z,7.07
2022-12-15T01:07:54.398Z,6.53
2022-12-15T01:10:39.686Z,6.57
2022-12-15T01:13:25.152Z,4.93
2022-12-15T01:16:10.547Z,4.20
2022-12-15T01:18:55.871Z,5.43
2022-12-15T01:21:25.500Z,6.10
2022-12-15T01:23:55.484Z,10.13
2022-12-15T01:26:23.658Z,11.85
2022-12-15T01:28:51.408Z,9.02
2022-12-15T01:31:19.355Z,8.43
2022-12-15T01:33:47.343Z,12.25
2022-12-15T01:36:15.295Z,12.30
2022-12-15T01:38:43.036Z,8.82
2022-12-15T01:41:12.505Z,10.02
2022-12-15T01:43:41.865Z,10.27
2022-12-15T01:46:11.244Z,8.65
2022-12-15T01:48:45.372Z,11.10
2022-12-15T01:51:20.815Z,10.13
2022-12-15T01:53:54.533Z,10.85
2022-12-15T01:56:25.899Z,11.07
2022-12-15T01:58:57.386Z,8.60
2022-12-15T02:01:25.157Z,9.85
2022-12-15T02:03:52.974Z,5.47
2022-12-15T02:06:22.715Z,7.65
2022-12-15T02:08:54.857Z,5.30
2022-12-15T02:11:39.878Z,8.00
2022-12-15T02:14:09.081Z,8.13
2022-12-15T02:16:53.439Z,7.57
2022-12-15T02:19:43.950Z,10.93
2022-12-15T02:22:24.753Z,12.48
2022-12-15T02:25:08.402Z,13.25
2022-12-15T02:27:57.753Z,13.88
2022-12-15T02:31:10.424Z,9.30
2022-12-15T02:33:45.667Z,9.60
2022-12-15T02:36:19.775Z,11.27
2022-12-15T02:38:47.628Z,7.90
2022-12-15T02:41:37.222Z,6.22
2022-12-15T02:44:11.421Z,7.13
2022-12-15T02:46:54.673Z,8.70
2022-12-15T02:49:31.888Z,5.88
2022-12-15T02:52:10.721Z,10.13
2022-12-15T02:54:58.318Z,11.13
2022-12-15T02:57:32.973Z,9.13
2022-12-15T03:00:05.152Z,15.95
2022-12-15T03:02:37.663Z,14.13
2022-12-15T03:05:06.912Z,9.88
2022-12-15T03:07:34.673Z,7.78
2022-12-15T03:10:05.916Z,7.80
2022-12-15T03:12:33.826Z,9.02
2022-12-15T03:15:01.579Z,6.97
2022-12-15T03:17:29.451Z,6.47
2022-12-15T03:19:58.845Z,6.88
2022-12-15T03:22:26.837Z,7.15
2022-12-15T03:24:54.755Z,7.80
2022-12-15T03:27:22.934Z,5.03
2022-12-15T03:29:50.698Z,6.30
2022-12-15T03:32:18.666Z,4.90
2022-12-15T03:34:46.597Z,6.68
2022-12-15T03:37:15.823Z,6.07
2022-12-15T03:39:43.641Z,6.47
2022-12-15T03:42:11.405Z,5.72
2022-12-15T03:44:39.197Z,4.68
2022-12-15T03:47:07.436Z,5.68
2022-12-15T03:49:35.334Z,5.05
2022-12-15T03:52:03.146Z,6.00
2022-12-15T03:54:32.282Z,5.72
2022-12-15T03:57:00.212Z,5.18
2022-12-15T03:59:28.142Z,9.20
2022-12-15T04:01:58.014Z,6.13
2022-12-15T04:04:25.921Z,5.28
2022-12-15T04:06:53.763Z,7.57
2022-12-15T04:09:24.477Z,4.32
2022-12-15T04:11:53.706Z,5.85
2022-12-15T04:14:21.809Z,5.55
2022-12-15T04:16:49.847Z,4.97
2022-12-15T04:19:35.696Z,5.55
2022-12-15T04:22:04.637Z,6.50
2022-12-15T04:24:50.076Z,6.10
2022-12-15T04:27:37.095Z,6.65
2022-12-15T04:30:25.406Z,5.97
2022-12-15T04:33:10.744Z,5.95
2022-12-15T04:35:55.981Z,5.32
2022-12-15T04:38:50.166Z,4.10
2022-12-15T04:41:37.976Z,5.82
2022-12-15T04:44:25.263Z,3.88
2022-12-15T04:47:10.520Z,5.90
2022-12-15T04:49:58.997Z,4.65
2022-12-15T04:52:47.186Z,7.45
2022-12-15T04:55:32.779Z,6.80
2022-12-15T04:58:23.522Z,4.72
2022-12-15T05:01:10.718Z,6.78
2022-12-15T05:03:56.455Z,4.63
2022-12-15T05:06:41.672Z,6.38
2022-12-15T05:09:28.285Z,7.07
2022-12-15T05:12:13.932Z,5.55
2022-12-15T05:15:01.300Z,6.10
2022-12-15T05:17:48.389Z,5.60
2022-12-15T05:20:33.867Z,5.90
2022-12-15T05:23:19.334Z,7.97
2022-12-15T05:26:04.560Z,5.07
2022-12-15T05:28:49.831Z,5.22
2022-12-15T05:31:37.572Z,5.22
2022-12-15T05:34:07.041Z,3.83
2022-12-15T05:36:34.953Z,5.40
2022-12-15T05:39:02.968Z,6.20
2022-12-15T05:41:30.831Z,7.90
2022-12-15T05:43:58.701Z,3.90
2022-12-15T05:46:26.627Z,6.72
2022-12-15T05:48:54.600Z,5.53
2022-12-15T05:51:40.393Z,5.07
2022-12-15T05:54:08.815Z,5.20
2022-12-15T05:56:39.953Z,4.40
2022-12-15T05:59:08.020Z,4.93
2022-12-15T06:01:38.920Z,4.18
2022-12-15T06:04:07.428Z,6.25
2022-12-15T06:06:37.050Z,7.72
2022-12-15T06:09:05.036Z,5.25
2022-12-15T06:11:32.924Z,4.75
2022-12-15T06:14:00.898Z,4.85
2022-12-15T06:16:29.634Z,5.32
2022-12-15T06:19:02.807Z,4.68
2022-12-15T06:21:32.791Z,5.10
2022-12-15T06:24:02.549Z,5.63
2022-12-15T06:26:33.650Z,8.52
2022-12-15T06:29:03.576Z,6.88
2022-12-15T06:31:32.469Z,8.38
2022-12-15T06:34:02.313Z,5.43
2022-12-15T06:36:31.413Z,6.07
2022-12-15T06:39:00.478Z,6.45
2022-12-15T06:41:31.037Z,6.05
2022-12-15T06:43:59.571Z,5.95
2022-12-15T06:46:29.401Z,5.95
2022-12-15T06:48:57.815Z,5.95
2022-12-15T06:51:26.466Z,8.57
2022-12-15T06:53:57.762Z,5.38
2022-12-15T06:56:34.014Z,6.32
2022-12-15T06:59:06.408Z,6.93
2022-12-15T07:01:36.059Z,5.43
2022-12-15T07:04:05.632Z,5.55
2022-12-15T07:06:37.543Z,7.30
2022-12-15T07:09:08.338Z,6.03
2022-12-15T07:11:37.645Z,5.43
2022-12-15T07:14:05.905Z,6.28
2022-12-15T07:16:34.286Z,8.98
2022-12-15T07:19:02.560Z,7.13
2022-12-15T07:21:30.792Z,6.20
2022-12-15T07:24:00.004Z,5.43
2022-12-15T07:26:31.708Z,5.15
2022-12-15T07:29:01.147Z,4.65
2022-12-15T07:31:29.116Z,5.28
2022-12-15T07:33:59.227Z,6.10
2022-12-15T07:36:27.741Z,8.63
2022-12-15T07:39:00.678Z,6.50
2022-12-15T07:41:30.199Z,6.57
2022-12-15T07:44:00.110Z,6.82
2022-12-15T07:46:29.133Z,6.72
2022-12-15T07:48:57.110Z,5.15
2022-12-15T07:51:27.109Z,4.72
2022-12-15T07:53:58.123Z,4.80
2022-12-15T07:56:26.003Z,5.95
2022-12-15T07:58:54.273Z,6.50
2022-12-15T08:01:24.761Z,5.85
2022-12-15T08:03:52.737Z,5.40
2022-12-15T08:06:20.602Z,5.63
2022-12-15T08:08:50.416Z,6.40
2022-12-15T08:11:22.044Z,3.60
2022-12-15T08:14:10.574Z,7.53
2022-12-15T08:16:40.756Z,6.78
2022-12-15T08:19:15.247Z,6.70
2022-12-15T08:24:12.378Z,9.45
2022-12-15T08:26:43.160Z,6.40
2022-12-15T08:29:49.428Z,6.30
2022-12-15T08:32:11.085Z,6.88
2022-12-15T08:34:42.602Z,7.55
2022-12-15T08:37:11.074Z,6.47
2022-12-15T08:39:39.010Z,7.35
2022-12-15T08:42:07.022Z,5.40
2022-12-15T08:44:35.230Z,6.38
2022-12-15T08:47:03.153Z,6.40
2022-12-15T08:49:32.363Z,7.28
2022-12-15T08:52:00.235Z,9.10
2022-12-15T08:54:28.016Z,6.18
2022-12-15T08:56:56.217Z,6.43
2022-12-15T08:59:25.225Z,8.38
2022-12-15T09:01:53.219Z,6.32
2022-12-15T09:04:24.041Z,6.97
2022-12-15T09:06:53.511Z,6.57
2022-12-15T09:09:21.578Z,9.82
2022-12-15T09:11:49.630Z,7.82
2022-12-15T09:14:25.671Z,7.95
2022-12-15T09:16:56.885Z,11.25
2022-12-15T09:19:27.897Z,6.10
2022-12-15T09:21:57.398Z,6.63
2022-12-15T09:24:34.786Z,7.15
2022-12-15T09:27:04.224Z,10.25
2022-12-15T09:29:32.279Z,8.80
2022-12-15T09:32:00.622Z,6.07
2022-12-15T09:34:28.858Z,7.47
2022-12-15T09:36:58.154Z,7.50
2022-12-15T09:39:26.120Z,8.25
2022-12-15T09:41:58.363Z,8.27
2022-12-15T09:44:28.989Z,6.25
2022-12-15T09:47:06.152Z,6.55
2022-12-15T09:49:47.166Z,6.15
2022-12-15T09:52:23.547Z,8.02
2022-12-15T09:54:55.078Z,6.70
2022-12-15T09:57:30.446Z,5.97
2022-12-15T10:00:21.541Z,7.40
2022-12-15T10:03:22.964Z,4.90
2022-12-15T10:06:25.974Z,5.82
2022-12-15T10:09:04.101Z,5.55
2022-12-15T10:14:38.880Z,4.80
2022-12-15T10:17:21.430Z,9.55
2022-12-15T10:19:56.424Z,6.22
2022-12-15T10:22:26.964Z,6.47
2022-12-15T10:25:11.793Z,7.35
2022-12-15T10:27:59.885Z,6.85
2022-12-15T10:30:27.976Z,5.43
2022-12-15T10:33:03.400Z,5.07
2022-12-15T10:35:33.305Z,6.03
2022-12-15T10:38:04.411Z,5.05
2022-12-15T10:40:50.160Z,5.55
2022-12-15T10:43:26.936Z,5.30
2022-12-15T10:46:03.555Z,5.28
2022-12-15T10:48:31.741Z,8.38
2022-12-15T10:51:29.008Z,7.00
2022-12-15T10:54:07.014Z,6.93
2022-12-15T10:56:46.799Z,8.07
2022-12-15T10:59:27.180Z,9.10
2022-12-15T11:01:55.214Z,8.45
2022-12-15T11:04:28.493Z,7.78
2022-12-15T11:07:00.853Z,8.98
2022-12-15T11:09:33.225Z,9.23
2022-12-15T11:12:20.708Z,6.97
2022-12-15T11:14:51.498Z,5.57
2022-12-15T11:17:22.115Z,4.22
2022-12-15T11:20:02.691Z,7.68
2022-12-15T11:22:41.352Z,4.60
2022-12-15T11:25:21.445Z,5.10
2022-12-15T11:27:58.856Z,5.03
2022-12-15T11:30:32.435Z,7.43
2022-12-15T11:33:04.085Z,4.30
2022-12-15T11:35:46.292Z,6.07
2022-12-15T11:38:25.049Z,7.65
2022-12-15T11:40:55.585Z,6.32
2022-12-15T11:43:51.126Z,6.38
2022-12-15T11:46:24.411Z,4.18
2022-12-15T11:49:25.357Z,5.13
2022-12-15T11:51:59.906Z,8.32
2022-12-15T11:54:39.088Z,7.05
2022-12-15T11:57:31.591Z,5.32
2022-12-15T12:00:08.992Z,4.38
2022-12-15T12:02:58.624Z,4.85
2022-12-15T12:05:42.184Z,5.13
2022-12-15T12:08:51.300Z,7.03
2022-12-15T12:11:23.031Z,4.50
2022-12-15T12:14:15.241Z,4.53
2022-12-15T12:16:56.791Z,4.70
2022-12-15T12:19:28.577Z,4.63
2022-12-15T12:22:01.337Z,4.38
2022-12-15T12:24:34.289Z,6.13
2022-12-15T12:27:06.298Z,8.30
2022-12-15T12:29:36.675Z,4.85
2022-12-15T12:32:12.582Z,5.30
2022-12-15T12:35:31.250Z,8.57
2022-12-15T12:37:46.796Z,6.68
2022-12-15T12:40:33.565Z,5.82
2022-12-15T12:43:02.160Z,5.97
2022-12-15T12:45:41.929Z,6.45
2022-12-15T12:48:25.733Z,4.32
2022-12-15T12:51:10.797Z,5.87
2022-12-15T12:53:42.010Z,5.47
2022-12-15T12:56:30.762Z,6.82
2022-12-15T12:58:58.846Z,9.77
2022-12-15T13:01:33.823Z,6.50
2022-12-15T13:04:13.187Z,6.75
2022-12-15T13:07:03.390Z,5.90
2022-12-15T13:10:02.682Z,5.85
2022-12-15T13:12:50.968Z,8.05
2022-12-15T13:15:36.023Z,4.40
2022-12-15T13:18:08.232Z,5.30
2022-12-15T13:20:38.819Z,5.72
2022-12-15T13:23:38.167Z,5.07
2022-12-15T13:26:19.406Z,6.20
2022-12-15T13:28:52.674Z,4.00
2022-12-15T13:31:43.102Z,3.80
2022-12-15T13:34:18.838Z,5.38
2022-12-15T13:36:55.408Z,4.57
2022-12-15T13:39:35.301Z,4.93
2022-12-15T13:45:40.715Z,5.55
2022-12-15T13:48:21.656Z,6.22
2022-12-15T13:50:57.059Z,3.92
2022-12-15T13:53:28.071Z,4.57
2022-12-15T13:56:07.096Z,4.75
2022-12-15T13:58:51.888Z,4.78
2022-12-15T14:04:04.935Z,6.93
2022-12-15T14:06:37.940Z,8.82
2022-12-15T14:09:08.309Z,4.68
2022-12-15T14:11:52.493Z,4.40
2022-12-15T14:16:59.350Z,5.13
2022-12-15T14:19:32.068Z,5.07
2022-12-15T14:22:02.811Z,5.50
2022-12-15T14:24:38.992Z,5.85
2022-12-15T14:27:07.658Z,6.20
2022-12-15T14:29:35.553Z,5.20
2022-12-15T14:32:06.903Z,6.75
2022-12-15T14:34:39.165Z,5.28
2022-12-15T14:37:12.284Z,5.00
2022-12-15T14:39:45.053Z,5.35
2022-12-15T14:42:19.870Z,4.28
2022-12-15T14:44:54.914Z,5.70
2022-12-15T14:47:27.958Z,6.43
2022-12-15T14:49:59.508Z,8.15
2022-12-15T14:52:33.650Z,6.35
2022-12-15T14:55:05.126Z,6.68
2022-12-15T14:57:43.248Z,6.50
2022-12-15T15:00:25.671Z,4.30
2022-12-15T15:03:04.235Z,5.18
2022-12-15T15:03:09.925Z,7.68
2022-12-15T15:05:51.257Z,6.60
2022-12-15T15:08:26.898Z,5.70
2022-12-15T15:10:58.473Z,3.40
2022-12-15T15:13:36.065Z,3.63
2022-12-15T15:16:09.907Z,4.53
2022-12-15T15:18:38.006Z,4.57
2022-12-15T15:21:16.251Z,4.63
2022-12-15T15:24:00.089Z,4.78
2022-12-15T15:26:30.964Z,3.85
2022-12-15T15:29:00.451Z,4.78
2022-12-15T15:31:40.338Z,9.32
2022-12-15T15:34:09.733Z,7.97
2022-12-15T15:36:39.942Z,6.03
2022-12-15T15:39:14.038Z,5.43
2022-12-15T15:41:46.329Z,4.85
2022-12-15T15:44:16.542Z,4.80
2022-12-15T15:46:49.618Z,5.93
2022-12-15T15:49:21.465Z,4.07
2022-12-15T15:51:50.120Z,4.25
2022-12-15T15:54:22.267Z,4.70
2022-12-15T15:56:52.077Z,4.25
2022-12-15T15:59:22.014Z,4.85
2022-12-15T16:02:02.342Z,4.15
2022-12-15T16:04:30.422Z,4.53
2022-12-15T16:07:01.170Z,6.80
2022-12-15T16:09:29.130Z,5.40
2022-12-15T16:11:59.407Z,5.22
2022-12-15T16:14:27.768Z,7.95
2022-12-15T16:16:55.864Z,8.75
2022-12-15T16:19:23.951Z,8.00
2022-12-15T16:21:52.220Z,7.75
2022-12-15T16:24:22.983Z,9.18
2022-12-15T16:26:52.205Z,9.27
2022-12-15T16:29:22.399Z,7.25
2022-12-15T16:31:50.400Z,9.27
2022-12-15T16:34:19.261Z,7.30
2022-12-15T16:36:47.388Z,10.00
2022-12-15T16:39:27.938Z,6.45
2022-12-15T16:41:57.615Z,9.32
2022-12-15T16:44:33.105Z,5.25
2022-12-15T16:47:01.219Z,6.47
2022-12-15T16:49:33.864Z,6.13
2022-12-15T16:52:08.736Z,6.55
2022-12-15T16:54:36.925Z,6.53
2022-12-15T16:57:05.627Z,6.88
2022-12-15T16:59:37.967Z,10.80
2022-12-15T17:02:24.982Z,7.30
2022-12-15T17:04:57.476Z,11.15
2022-12-15T17:07:28.045Z,12.60
2022-12-15T17:09:59.250Z,6.60
2022-12-15T17:12:27.650Z,10.30
2022-12-15T17:15:04.098Z,9.40
2022-12-15T17:17:32.265Z,12.93
2022-12-15T17:22:51.770Z,8.65
2022-12-15T17:25:45.940Z,9.18
2022-12-15T17:28:16.873Z,8.07
2022-12-15T17:30:46.948Z,7.15
2022-12-15T17:33:19.762Z,7.10
2022-12-15T17:35:53.507Z,8.90
2022-12-15T17:39:22.967Z,4.97
2022-12-15T17:42:00.005Z,10.00
2022-12-15T17:44:33.559Z,10.82
2022-12-15T17:47:05.514Z,9.02
2022-12-15T17:49:36.649Z,10.13
2022-12-15T17:52:09.152Z,8.18
2022-12-15T17:54:37.545Z,8.40
2022-12-15T17:57:05.324Z,8.57
2022-12-15T17:59:33.260Z,8.50
2022-12-15T18:02:01.256Z,9.27
2022-12-15T18:04:31.360Z,7.10
2022-12-15T18:07:03.479Z,10.52
2022-12-15T18:09:31.780Z,14.90
2022-12-15T18:11:59.635Z,9.18
2022-12-15T18:14:28.945Z,9.00
2022-12-15T18:17:07.826Z,10.70
2022-12-15T18:19:37.040Z,9.43
2022-12-15T18:22:05.246Z,8.48
2022-12-15T18:24:33.398Z,9.57
2022-12-15T18:27:01.497Z,8.10
2022-12-15T18:29:29.387Z,8.75
2022-12-15T18:31:59.558Z,8.63
2022-12-15T18:34:27.454Z,7.00
2022-12-15T18:36:56.743Z,8.13
2022-12-15T18:39:24.934Z,11.05
2022-12-15T18:41:54.995Z,8.48
2022-12-15T18:44:24.965Z,9.02
2022-12-15T18:46:53.306Z,10.00
2022-12-15T18:53:40.367Z,6.63
2022-12-15T18:56:14.453Z,10.65
2022-12-15T18:58:42.854Z,7.43
2022-12-15T19:01:11.816Z,7.00
2022-12-15T19:04:01.444Z,9.15
2022-12-15T19:06:35.792Z,7.45
2022-12-15T19:09:08.725Z,9.25
2022-12-15T19:11:36.662Z,7.80
2022-12-15T19:14:25.864Z,8.98
2022-12-15T19:17:11.322Z,6.88
2022-12-15T19:19:57.132Z,9.43
2022-12-15T19:22:29.709Z,7.72
2022-12-15T19:24:59.583Z,8.57
2022-12-15T19:27:27.468Z,10.20
2022-12-15T19:29:55.764Z,8.23
2022-12-15T19:32:24.429Z,9.55
2022-12-15T19:34:52.317Z,8.40
2022-12-15T19:37:26.227Z,7.28
2022-12-15T19:39:54.954Z,8.95
2022-12-15T19:42:29.708Z,8.32
2022-12-15T19:44:58.232Z,9.00
2022-12-15T19:47:27.015Z,8.98
2022-12-15T19:49:56.329Z,12.93
2022-12-15T19:52:24.536Z,8.68
2022-12-15T19:54:52.529Z,9.25
2022-12-15T19:57:21.036Z,10.80
2022-12-15T19:59:50.276Z,9.05
2022-12-15T20:02:20.379Z,9.05
2022-12-15T20:04:49.362Z,8.93
2022-12-15T20:07:20.471Z,9.27
2022-12-15T20:09:48.372Z,9.13
2022-12-15T20:12:18.774Z,10.75
2022-12-15T20:14:47.482Z,10.20
2022-12-15T20:17:16.746Z,8.60
2022-12-15T20:19:44.716Z,10.50
2022-12-15T20:22:15.946Z,12.60
2022-12-15T20:24:44.846Z,8.30
2022-12-15T20:27:14.246Z,9.98
2022-12-15T20:29:42.532Z,10.65
2022-12-15T20:32:17.272Z,8.52
2022-12-15T20:34:45.803Z,10.10
2022-12-15T20:37:19.549Z,10.80
2022-12-15T20:39:49.432Z,12.48
2022-12-15T20:42:21.900Z,11.50
2022-12-15T20:44:50.849Z,8.82
2022-12-15T20:47:22.938Z,10.85
2022-12-15T20:49:51.918Z,10.05
2022-12-15T20:52:22.742Z,8.68
2022-12-15T20:54:50.770Z,8.63
2022-12-15T20:57:18.920Z,8.32
2022-12-15T20:59:46.996Z,7.53
2022-12-15T21:02:22.595Z,7.22
2022-12-15T21:04:51.149Z,8.75
2022-12-15T21:07:19.751Z,8.15
2022-12-15T21:09:47.669Z,8.90
2022-12-15T21:12:21.924Z,5.25
2022-12-15T21:14:50.947Z,8.30
2022-12-15T21:17:22.575Z,6.18
2022-12-15T21:19:50.963Z,5.55
2022-12-15T21:22:21.866Z,5.85
2022-12-15T21:24:50.725Z,11.20
2022-12-15T21:27:18.746Z,9.68
2022-12-15T21:29:52.364Z,8.98
2022-12-15T21:32:22.674Z,7.30
2022-12-15T21:34:51.797Z,7.82
2022-12-15T21:37:24.733Z,6.82
2022-12-15T21:39:52.797Z,7.03
2022-12-15T21:42:21.782Z,4.32
2022-12-15T21:44:49.789Z,6.30
2022-12-15T21:47:47.238Z,6.90
2022-12-15T21:50:14.495Z,10.43
2022-12-15T21:52:43.011Z,6.63
2022-12-15T21:55:16.146Z,10.00
2022-12-15T21:57:44.052Z,6.82
2022-12-15T22:00:15.312Z,7.55
2022-12-15T22:02:45.293Z,8.35
2022-12-15T22:05:17.659Z,7.65
2022-12-15T22:07:52.632Z,9.65
2022-12-15T22:10:22.604Z,8.55
2022-12-15T22:12:58.971Z,11.00
2022-12-15T22:15:29.965Z,9.50
2022-12-15T22:18:02.283Z,8.98
2022-12-15T22:20:30.737Z,11.32
2022-12-15T22:23:04.862Z,9.90
2022-12-15T22:25:32.847Z,14.57
2022-12-15T22:28:08.029Z,10.80
2022-12-15T22:30:35.863Z,12.32
2022-12-15T22:33:21.542Z,11.32
2022-12-15T22:35:50.842Z,8.55
2022-12-15T22:38:25.854Z,11.68
2022-12-15T22:41:05.148Z,9.25
2022-12-15T22:43:36.882Z,9.85
2022-12-15T22:46:08.968Z,8.68
2022-12-15T22:48:42.182Z,6.32
2022-12-15T22:51:13.880Z,10.00
2022-12-15T22:53:44.738Z,11.88
2022-12-15T22:56:27.033Z,8.95
2022-12-15T22:59:00.784Z,8.50
2022-12-15T23:01:30.599Z,6.20
2022-12-15T23:03:59.995Z,8.80
2022-12-15T23:06:28.372Z,10.32
2022-12-15T23:08:56.503Z,10.68
2022-12-15T23:11:39.451Z,8.52
2022-12-15T23:14:11.815Z,6.95
2022-12-15T23:16:39.299Z,9.40
2022-12-15T23:19:09.017Z,9.82
2022-12-15T23:21:37.460Z,7.68
2022-12-15T23:24:05.688Z,6.57
2022-12-15T23:26:33.906Z,8.63
2022-12-15T23:29:01.646Z,7.70
2022-12-15T23:31:29.622Z,6.00
2022-12-15T23:33:57.542Z,10.20
2022-12-15T23:36:26.687Z,11.10
2022-12-15T23:38:55.121Z,7.57
2022-12-15T23:41:22.944Z,7.43
2022-12-15T23:43:53.537Z,6.60
2022-12-15T23:46:21.437Z,5.00
2022-12-15T23:48:50.330Z,6.05
2022-12-15T23:51:21.361Z,5.28
2022-12-15T23:53:51.165Z,7.82
2022-12-15T23:56:21.995Z,7.18
2022-12-15T23:58:57.288Z,8.85
